Darstellungsparameter: Aktuell verwendete Einstellungen:
Skalierung der Graphiken ... ?
xyx+y,   Skalierungsfaktor:      Skalierung: Modus: x, Faktor: 1
Darstellungszeitraum ... ?
Vom - - bis: - -   Zeitraum: 28.09.2019 - 28.09.2019
Min/Max/Avg-Anzeige ... ?
Zeige MMA aktuell
Zeige MMA Monat
Zeige MMA alles
Zeige --A aktuell
Zeige --A Monat
Zeige --A alles
Keine MMA-Anzeige
MMA:
Average (ber die Originaldaten)
MMA-Basis: 28.09.2019 - 28.09.2019
Quicknavigation für Darstellung... ?
Tage:      1T, 2T, 3T, 5T -1T -2T -3T -5T +1T +2T +3T +5T
Wochen: 1W, 2W, 3W -1W -2W -3W +1W +2W +3W
Monate: 1M, 3M, 6M -1M -3M -6M +1M +3M +6M
Jahre:    1J, 3J, 5J, 10J -1J -3J -5J -10J +1J +3J +5J +10J
Nutze für die Darstellung ... ?
Originaldaten oder Mittelwerte auf ...
Stundenbasis Tagesbasis Wochenbasis
Monatsbasis Jahresbasis      Datenbasis: Original-Daten
Darstellen als:
Statistik (Auto) Statistik J:M      Darstellung:
Zur Graphik,    zurück zur Übersicht aller Sensoren.
 
Tabellarische Datenbersicht: ?
 
Sensor: Nr:Datum:Temp:Feuchte:
Aussen-T/F 1 28-09-2019 00:05:18 12.4 C 30 %
2 28-09-2019 00:15:17 12.3 C 30 %
3 28-09-2019 00:25:17 12.1 C 30 %
4 28-09-2019 00:35:17 12.2 C 31 %
5 28-09-2019 00:45:17 12.3 C 31 %
6 28-09-2019 00:55:17 12.1 C 31 %
7 28-09-2019 01:05:18 12.3 C 31 %
8 28-09-2019 01:15:17 12.2 C 31 %
9 28-09-2019 01:25:17 12.2 C 31 %
10 28-09-2019 01:35:18 12.6 C 30 %
11 28-09-2019 01:45:17 13 C 28 %
12 28-09-2019 01:55:17 14.2 C 25 %
13 28-09-2019 02:05:18 14.2 C 25 %
14 28-09-2019 02:15:17 14.7 C 24 %
15 28-09-2019 02:25:17 14.7 C 23 %
16 28-09-2019 02:35:17 14.6 C 23 %
17 28-09-2019 02:45:17 14.8 C 23 %
18 28-09-2019 02:55:17 14.9 C 23 %
19 28-09-2019 03:05:18 14.9 C 23 %
20 28-09-2019 03:15:17 15.2 C 22 %
21 28-09-2019 03:25:17 14.8 C 23 %
22 28-09-2019 03:35:17 14.4 C 25 %
23 28-09-2019 03:45:17 14.1 C 26 %
24 28-09-2019 03:55:17 13.7 C 26 %
25 28-09-2019 04:05:17 13.8 C 27 %
Sensor: Nr:Datum:Temp:Feuchte:
Aussen-T/F 26 28-09-2019 04:15:18 13.5 C 27 %
27 28-09-2019 04:25:18 14 C 26 %
28 28-09-2019 04:35:17 13.7 C 26 %
29 28-09-2019 04:45:17 14.1 C 25 %
30 28-09-2019 04:55:17 14.1 C 25 %
31 28-09-2019 05:05:17 14.1 C 25 %
32 28-09-2019 05:15:17 14 C 25 %
33 28-09-2019 05:25:17 14.1 C 25 %
34 28-09-2019 05:35:17 14 C 25 %
35 28-09-2019 05:45:18 14.2 C 25 %
36 28-09-2019 05:55:18 14.2 C 25 %
37 28-09-2019 06:05:17 14.4 C 25 %
38 28-09-2019 06:15:17 14.1 C 25 %
39 28-09-2019 06:25:17 14 C 25 %
40 28-09-2019 06:35:18 14.4 C 25 %
41 28-09-2019 06:45:17 13.8 C 26 %
42 28-09-2019 06:55:17 13.8 C 26 %
43 28-09-2019 07:05:17 13.5 C 26 %
44 28-09-2019 07:15:17 13.6 C 27 %
45 28-09-2019 07:25:17 13.3 C 29 %
46 28-09-2019 07:35:17 13.5 C 28 %
47 28-09-2019 07:45:18 13.5 C 29 %
48 28-09-2019 07:55:18 13.4 C 30 %
49 28-09-2019 08:05:17 13.2 C 30 %
50 28-09-2019 08:15:18 13.8 C 26 %
Sensor: Nr:Datum:Temp:Feuchte:
Aussen-T/F 51 28-09-2019 08:25:18 13.8 C 25 %
52 28-09-2019 08:35:17 13.7 C 26 %
53 28-09-2019 08:45:18 13.5 C 26 %
54 28-09-2019 08:55:18 13.8 C 25 %
55 28-09-2019 09:05:17 14.1 C 25 %
56 28-09-2019 09:15:17 14.5 C 24 %
57 28-09-2019 09:25:17 14.3 C 24 %
58 28-09-2019 09:35:18 14.5 C 23 %
59 28-09-2019 09:45:17 14.4 C 23 %
60 28-09-2019 09:55:17 14.8 C 22 %
61 28-09-2019 10:05:18 15 C 21 %
62 28-09-2019 10:15:17 15.5 C 20 %
63 28-09-2019 10:25:17 15.6 C 20 %
64 28-09-2019 10:35:17 16 C 20 %
65 28-09-2019 10:45:17 16.2 C 20 %
66 28-09-2019 10:55:17 16.1 C 20 %
67 28-09-2019 11:05:18 16 C 20 %
68 28-09-2019 11:15:17 16.6 C 20 %
69 28-09-2019 11:25:17 16.7 C 20 %
70 28-09-2019 11:35:18 17 C 20 %
71 28-09-2019 11:45:17 16.6 C 20 %
72 28-09-2019 11:55:17 16.9 C 20 %
73 28-09-2019 12:05:17 17.1 C 20 %
74 28-09-2019 12:15:17 17.4 C 20 %
75 28-09-2019 12:25:17 17.3 C 20 %
Sensor: Nr:Datum:Temp:Feuchte:
Aussen-T/F 76 28-09-2019 12:35:17 17.2 C 20 %
77 28-09-2019 12:45:17 17.4 C 20 %
78 28-09-2019 12:55:17 17.8 C 20 %
79 28-09-2019 13:05:18 17.5 C 20 %
80 28-09-2019 13:15:17 17.6 C 20 %
81 28-09-2019 13:25:17 17.4 C 20 %
82 28-09-2019 13:35:17 17.7 C 20 %
83 28-09-2019 13:45:17 17.8 C 20 %
84 28-09-2019 13:55:17 17.9 C 20 %
85 28-09-2019 14:05:17 18.3 C 20 %
86 28-09-2019 14:15:17 18.3 C 20 %
87 28-09-2019 14:25:18 17.8 C 20 %
88 28-09-2019 14:35:17 18.1 C 20 %
89 28-09-2019 14:45:18 17.8 C 20 %
90 28-09-2019 14:55:18 18.4 C 20 %
91 28-09-2019 15:05:17 18.1 C 20 %
92 28-09-2019 15:15:17 17.7 C 20 %
93 28-09-2019 15:25:17 17.3 C 20 %
94 28-09-2019 15:35:17 17.5 C 20 %
95 28-09-2019 15:45:18 17.3 C 20 %
96 28-09-2019 15:55:18 16.8 C 20 %
97 28-09-2019 16:05:17 17.1 C 20 %
98 28-09-2019 16:15:17 19.7 C 20 %
99 28-09-2019 16:25:17 20.3 C 20 %
100 28-09-2019 16:35:17 19.6 C 20 %
Sensor: Nr:Datum:Temp:Feuchte:
Aussen-T/F 101 28-09-2019 16:45:17 19 C 20 %
102 28-09-2019 16:55:17 18.7 C 20 %
103 28-09-2019 17:05:17 18.6 C 20 %
104 28-09-2019 17:15:18 17.3 C 20 %
105 28-09-2019 17:25:18 19 C 20 %
106 28-09-2019 17:35:17 19.2 C 20 %
107 28-09-2019 17:45:18 18.3 C 20 %
108 28-09-2019 17:55:18 17.7 C 20 %
109 28-09-2019 18:05:17 17.7 C 20 %
110 28-09-2019 18:15:17 17.3 C 20 %
111 28-09-2019 18:25:17 17 C 20 %
112 28-09-2019 18:35:17 16.4 C 20 %
113 28-09-2019 18:45:18 16.2 C 20 %
114 28-09-2019 18:55:18 15.9 C 20 %
115 28-09-2019 19:05:17 15.8 C 20 %
116 28-09-2019 19:15:17 15.4 C 20 %
117 28-09-2019 19:25:17 15.6 C 20 %
118 28-09-2019 19:35:17 15.6 C 20 %
119 28-09-2019 19:45:17 15.9 C 20 %
120 28-09-2019 19:55:17 15.9 C 20 %
121 28-09-2019 20:05:18 15.6 C 20 %
122 28-09-2019 20:15:17 15.3 C 20 %
123 28-09-2019 20:25:17 15 C 20 %
124 28-09-2019 20:35:17 14.8 C 20 %
125 28-09-2019 20:45:17 15.3 C 20 %
Sensor: Nr:Datum:Temp:Feuchte:
Aussen-T/F 126 28-09-2019 20:55:17 15.4 C 20 %
127 28-09-2019 21:05:17 14.8 C 20 %
128 28-09-2019 21:15:18 14.7 C 20 %
129 28-09-2019 21:25:18 15.1 C 20 %
130 28-09-2019 21:35:17 15.1 C 20 %
131 28-09-2019 21:45:18 15.3 C 20 %
132 28-09-2019 21:55:18 15.4 C 20 %
133 28-09-2019 22:05:17 15.4 C 20 %
134 28-09-2019 22:15:17 15.4 C 20 %
135 28-09-2019 22:25:17 15.1 C 20 %
136 28-09-2019 22:35:17 14.8 C 20 %
137 28-09-2019 22:45:17 14.2 C 20 %
138 28-09-2019 22:55:17 14.1 C 20 %
139 28-09-2019 23:05:17 13.4 C 20 %
140 28-09-2019 23:15:17 13.8 C 20 %
141 28-09-2019 23:25:17 13.9 C 20 %
142 28-09-2019 23:35:17 14.7 C 20 %
143 28-09-2019 23:45:17 14 C 20 %
144 28-09-2019 23:55:17 14 C 20 %
Sensor: Nr:Datum:Temp:Feuchte:
G-T/H 1 28-09-2019 00:05:18 16.6 C 69 %
2 28-09-2019 00:15:17 16.6 C 69 %
3 28-09-2019 00:25:17 16.6 C 69 %
4 28-09-2019 00:35:17 16.6 C 69 %
5 28-09-2019 00:45:17 16.6 C 69 %
6 28-09-2019 00:55:17 16.6 C 69 %
7 28-09-2019 01:05:18 16.5 C 69 %
8 28-09-2019 01:15:17 16.6 C 69 %
9 28-09-2019 01:25:17 16.6 C 69 %
10 28-09-2019 01:35:18 16.5 C 69 %
11 28-09-2019 01:45:17 16.5 C 69 %
12 28-09-2019 01:55:17 16.5 C 69 %
13 28-09-2019 02:05:18 16.5 C 69 %
14 28-09-2019 02:15:17 16.5 C 69 %
15 28-09-2019 02:25:17 16.5 C 69 %
16 28-09-2019 02:35:17 16.5 C 69 %
17 28-09-2019 02:45:17 16.4 C 69 %
18 28-09-2019 02:55:17 16.4 C 69 %
19 28-09-2019 03:05:18 16.4 C 69 %
20 28-09-2019 03:15:17 16.4 C 69 %
21 28-09-2019 03:25:17 16.4 C 69 %
22 28-09-2019 03:35:17 16.4 C 69 %
23 28-09-2019 03:45:17 16.4 C 69 %
24 28-09-2019 03:55:17 16.4 C 69 %
25 28-09-2019 04:05:17 16.4 C 69 %
Sensor: Nr:Datum:Temp:Feuchte:
G-T/H 26 28-09-2019 04:15:18 16.4 C 69 %
27 28-09-2019 04:25:18 16.4 C 69 %
28 28-09-2019 04:35:17 16.4 C 69 %
29 28-09-2019 04:45:17 16.4 C 69 %
30 28-09-2019 04:55:17 16.3 C 69 %
31 28-09-2019 05:05:17 16.3 C 69 %
32 28-09-2019 05:15:17 16.3 C 69 %
33 28-09-2019 05:25:17 16.3 C 69 %
34 28-09-2019 05:35:17 16.2 C 69 %
35 28-09-2019 05:45:18 16.3 C 69 %
36 28-09-2019 05:55:18 16.3 C 69 %
37 28-09-2019 06:05:17 16.3 C 69 %
38 28-09-2019 06:15:17 16.3 C 69 %
39 28-09-2019 06:25:17 16.3 C 69 %
40 28-09-2019 06:35:18 16.2 C 69 %
41 28-09-2019 06:45:17 16.2 C 69 %
42 28-09-2019 06:55:17 16.2 C 69 %
43 28-09-2019 07:05:17 16.2 C 69 %
44 28-09-2019 07:15:17 16.2 C 69 %
45 28-09-2019 07:25:17 16.2 C 69 %
46 28-09-2019 07:35:17 16.2 C 69 %
47 28-09-2019 07:45:18 16.1 C 69 %
48 28-09-2019 07:55:18 16.1 C 70 %
49 28-09-2019 08:05:17 16.1 C 70 %
50 28-09-2019 08:15:18 16.2 C 70 %
Sensor: Nr:Datum:Temp:Feuchte:
G-T/H 51 28-09-2019 08:25:18 16.1 C 70 %
52 28-09-2019 08:35:17 16.1 C 70 %
53 28-09-2019 08:45:18 16.1 C 70 %
54 28-09-2019 08:55:18 16.1 C 70 %
55 28-09-2019 09:05:17 16.1 C 70 %
56 28-09-2019 09:15:17 16.1 C 69 %
57 28-09-2019 09:25:17 16.1 C 69 %
58 28-09-2019 09:35:18 16.1 C 69 %
59 28-09-2019 09:45:17 16.1 C 70 %
60 28-09-2019 09:55:17 16.1 C 70 %
61 28-09-2019 10:05:18 16.1 C 69 %
62 28-09-2019 10:15:17 16.1 C 69 %
63 28-09-2019 10:25:17 16.1 C 69 %
64 28-09-2019 10:35:17 16.1 C 69 %
65 28-09-2019 10:45:17 16.1 C 69 %
66 28-09-2019 10:55:17 16.1 C 69 %
67 28-09-2019 11:05:18 16.1 C 69 %
68 28-09-2019 11:15:17 16.1 C 69 %
69 28-09-2019 11:25:17 16.1 C 69 %
70 28-09-2019 11:35:18 16.1 C 69 %
71 28-09-2019 11:45:17 16.1 C 69 %
72 28-09-2019 11:55:17 16.1 C 69 %
73 28-09-2019 12:05:17 16.2 C 69 %
74 28-09-2019 12:15:17 16.2 C 69 %
75 28-09-2019 12:25:17 16.2 C 69 %
Sensor: Nr:Datum:Temp:Feuchte:
G-T/H 76 28-09-2019 12:35:17 16.2 C 69 %
77 28-09-2019 12:45:17 16.2 C 69 %
78 28-09-2019 12:55:17 16.2 C 69 %
79 28-09-2019 13:05:18 16.2 C 69 %
80 28-09-2019 13:15:17 16.2 C 69 %
81 28-09-2019 13:25:17 16.2 C 69 %
82 28-09-2019 13:35:17 16.2 C 69 %
83 28-09-2019 13:45:17 16.2 C 69 %
84 28-09-2019 13:55:17 16.2 C 69 %
85 28-09-2019 14:05:17 16.2 C 69 %
86 28-09-2019 14:15:17 16.2 C 69 %
87 28-09-2019 14:25:18 16.2 C 70 %
88 28-09-2019 14:35:17 16.3 C 70 %
89 28-09-2019 14:45:18 16.2 C 70 %
90 28-09-2019 14:55:18 16.2 C 70 %
91 28-09-2019 15:05:17 16.2 C 70 %
92 28-09-2019 15:15:17 16.3 C 70 %
93 28-09-2019 15:25:17 16.3 C 70 %
94 28-09-2019 15:35:17 16.3 C 70 %
95 28-09-2019 15:45:18 16.3 C 70 %
96 28-09-2019 15:55:18 16.3 C 70 %
97 28-09-2019 16:05:17 16.3 C 70 %
98 28-09-2019 16:15:17 16.3 C 70 %
99 28-09-2019 16:25:17 16.3 C 70 %
100 28-09-2019 16:35:17 16.4 C 70 %
Sensor: Nr:Datum:Temp:Feuchte:
G-T/H 101 28-09-2019 16:45:17 16.3 C 70 %
102 28-09-2019 16:55:17 16.4 C 70 %
103 28-09-2019 17:05:17 16.6 C 70 %
104 28-09-2019 17:15:18 16.6 C 69 %
105 28-09-2019 17:25:18 17 C 68 %
106 28-09-2019 17:35:17 17.2 C 67 %
107 28-09-2019 17:45:18 17.2 C 67 %
108 28-09-2019 17:55:18 17.3 C 67 %
109 28-09-2019 18:05:17 17.2 C 67 %
110 28-09-2019 18:15:17 17.2 C 67 %
111 28-09-2019 18:25:17 17.2 C 67 %
112 28-09-2019 18:35:17 17.2 C 67 %
113 28-09-2019 18:45:18 17.2 C 67 %
114 28-09-2019 18:55:18 17.1 C 67 %
115 28-09-2019 19:05:17 17.1 C 68 %
116 28-09-2019 19:15:17 17.1 C 68 %
117 28-09-2019 19:25:17 17.1 C 68 %
118 28-09-2019 19:35:17 17 C 68 %
119 28-09-2019 19:45:17 17 C 68 %
120 28-09-2019 19:55:17 17 C 68 %
121 28-09-2019 20:05:18 17 C 68 %
122 28-09-2019 20:15:17 17 C 68 %
123 28-09-2019 20:25:17 17 C 68 %
124 28-09-2019 20:35:17 17 C 68 %
125 28-09-2019 20:45:17 17 C 68 %
Sensor: Nr:Datum:Temp:Feuchte:
G-T/H 126 28-09-2019 20:55:17 16.9 C 69 %
127 28-09-2019 21:05:17 16.9 C 69 %
128 28-09-2019 21:15:18 16.9 C 69 %
129 28-09-2019 21:25:18 16.8 C 69 %
130 28-09-2019 21:35:17 16.8 C 69 %
131 28-09-2019 21:45:18 16.8 C 69 %
132 28-09-2019 21:55:18 16.9 C 69 %
133 28-09-2019 22:05:17 16.8 C 69 %
134 28-09-2019 22:15:17 16.8 C 69 %
135 28-09-2019 22:25:17 16.8 C 69 %
136 28-09-2019 22:35:17 16.8 C 69 %
137 28-09-2019 22:45:17 16.8 C 69 %
138 28-09-2019 22:55:17 16.8 C 69 %
139 28-09-2019 23:05:17 16.8 C 69 %
140 28-09-2019 23:15:17 16.7 C 69 %
141 28-09-2019 23:25:17 16.7 C 69 %
142 28-09-2019 23:35:17 16.7 C 69 %
143 28-09-2019 23:45:17 16.7 C 69 %
144 28-09-2019 23:55:17 16.7 C 69 %

Legende:
   Min
   Max


Maximal/Minimal-Werte vom 28.09.2019 - 28.09.2019

Sensor Min Max Avg
Temp
(Aussen-T/F)
12.1 °C
28-09-2019  00:25:17
20.3 °C
28-09-2019  16:25:17
15.4 °C
Feuchte
(Aussen-T/F)
20 %
28-09-2019  10:15:17
31 %
28-09-2019  00:35:17
22.58 %
Temp
(G-T/H)
16.1 °C
28-09-2019  07:45:18
17.3 °C
28-09-2019  17:55:18
16.47 °C
Feuchte
(G-T/H)
67 %
28-09-2019  17:35:17
70 %
28-09-2019  07:55:18
68.98 %

Die Daten stammen von einer Davis Vantage Pro 2 Wetter-Station und werden unter Linux mit der Software wview2wettercgi und aufbereitet. Alle Angaben erfolgen ohne Gewähr für ihre Vollständigkeit oder Richtigkeit.
Kontakt: Rainer Krienke krienke@uni-koblenz.de . Meine Webseiten an der Uni Koblenz oder privat.
Version: $Revision: 0.78 $